sensor_id;sensor_type;location;lat;lon;timestamp;P1;durP1;ratioP1;P2;durP2;ratioP2
13801;SDS011;6972;51.518;6.918;2022-08-19T00:01:47;9.05;;;4.57;;
13801;SDS011;6972;51.518;6.918;2022-08-19T00:04:14;9.07;;;4.68;;
13801;SDS011;6972;51.518;6.918;2022-08-19T00:06:42;6.90;;;4.63;;
13801;SDS011;6972;51.518;6.918;2022-08-19T00:09:10;7.97;;;4.32;;
13801;SDS011;6972;51.518;6.918;2022-08-19T00:11:38;4.97;;;4.47;;
13801;SDS011;6972;51.518;6.918;2022-08-19T00:14:05;5.82;;;4.18;;
13801;SDS011;6972;51.518;6.918;2022-08-19T00:16:33;5.75;;;4.72;;
13801;SDS011;6972;51.518;6.918;2022-08-19T00:18:59;7.15;;;4.97;;
13801;SDS011;6972;51.518;6.918;2022-08-19T00:21:26;7.43;;;4.35;;
13801;SDS011;6972;51.518;6.918;2022-08-19T00:23:52;10.48;;;4.93;;
13801;SDS011;6972;51.518;6.918;2022-08-19T00:26:25;7.57;;;4.28;;
13801;SDS011;6972;51.518;6.918;2022-08-19T00:28:52;5.50;;;4.88;;
13801;SDS011;6972;51.518;6.918;2022-08-19T00:31:18;5.68;;;4.60;;
13801;SDS011;6972;51.518;6.918;2022-08-19T00:33:43;9.95;;;4.82;;
13801;SDS011;6972;51.518;6.918;2022-08-19T00:36:09;9.20;;;4.95;;
13801;SDS011;6972;51.518;6.918;2022-08-19T00:38:36;8.95;;;5.50;;
13801;SDS011;6972;51.518;6.918;2022-08-19T00:41:06;7.20;;;4.78;;
13801;SDS011;6972;51.518;6.918;2022-08-19T00:43:32;8.10;;;4.88;;
13801;SDS011;6972;51.518;6.918;2022-08-19T00:45:58;7.03;;;4.60;;
13801;SDS011;6972;51.518;6.918;2022-08-19T00:48:25;9.73;;;4.80;;
13801;SDS011;6972;51.518;6.918;2022-08-19T00:50:51;6.88;;;5.07;;
13801;SDS011;6972;51.518;6.918;2022-08-19T00:53:20;7.50;;;4.57;;
13801;SDS011;6972;51.518;6.918;2022-08-19T00:55:49;6.60;;;4.88;;
13801;SDS011;6972;51.518;6.918;2022-08-19T00:58:19;7.45;;;4.63;;
13801;SDS011;6972;51.518;6.918;2022-08-19T01:00:46;6.25;;;4.95;;
13801;SDS011;6972;51.518;6.918;2022-08-19T01:03:17;6.03;;;5.00;;
13801;SDS011;6972;51.518;6.918;2022-08-19T01:05:45;6.05;;;4.78;;
13801;SDS011;6972;51.518;6.918;2022-08-19T01:08:14;7.72;;;4.75;;
13801;SDS011;6972;51.518;6.918;2022-08-19T01:10:42;8.57;;;5.00;;
13801;SDS011;6972;51.518;6.918;2022-08-19T01:13:13;7.72;;;5.22;;
13801;SDS011;6972;51.518;6.918;2022-08-19T01:15:43;8.55;;;4.78;;
13801;SDS011;6972;51.518;6.918;2022-08-19T01:18:19;12.35;;;5.18;;
13801;SDS011;6972;51.518;6.918;2022-08-19T01:20:46;6.07;;;4.75;;
13801;SDS011;6972;51.518;6.918;2022-08-19T01:23:12;8.20;;;5.10;;
13801;SDS011;6972;51.518;6.918;2022-08-19T01:25:46;7.40;;;5.78;;
13801;SDS011;6972;51.518;6.918;2022-08-19T01:28:25;5.78;;;5.13;;
13801;SDS011;6972;51.518;6.918;2022-08-19T01:30:52;8.35;;;5.50;;
13801;SDS011;6972;51.518;6.918;2022-08-19T01:33:19;6.93;;;5.03;;
13801;SDS011;6972;51.518;6.918;2022-08-19T01:35:45;9.85;;;5.22;;
13801;SDS011;6972;51.518;6.918;2022-08-19T01:38:20;5.68;;;4.95;;
13801;SDS011;6972;51.518;6.918;2022-08-19T01:40:50;9.38;;;5.40;;
13801;SDS011;6972;51.518;6.918;2022-08-19T01:43:16;7.18;;;5.28;;
13801;SDS011;6972;51.518;6.918;2022-08-19T01:45:44;8.07;;;5.80;;
13801;SDS011;6972;51.518;6.918;2022-08-19T01:48:10;6.78;;;5.35;;
13801;SDS011;6972;51.518;6.918;2022-08-19T01:50:37;8.30;;;5.75;;
13801;SDS011;6972;51.518;6.918;2022-08-19T01:53:05;8.25;;;5.75;;
13801;SDS011;6972;51.518;6.918;2022-08-19T01:55:33;7.68;;;5.90;;
13801;SDS011;6972;51.518;6.918;2022-08-19T01:58:02;9.68;;;6.28;;
13801;SDS011;6972;51.518;6.918;2022-08-19T02:00:30;10.25;;;5.50;;
13801;SDS011;6972;51.518;6.918;2022-08-19T02:02:57;9.30;;;5.57;;
13801;SDS011;6972;51.518;6.918;2022-08-19T02:05:24;6.40;;;5.68;;
13801;SDS011;6972;51.518;6.918;2022-08-19T02:07:50;8.43;;;5.85;;
13801;SDS011;6972;51.518;6.918;2022-08-19T02:10:20;7.28;;;5.28;;
13801;SDS011;6972;51.518;6.918;2022-08-19T02:12:47;10.95;;;5.57;;
13801;SDS011;6972;51.518;6.918;2022-08-19T02:15:14;7.60;;;5.65;;
13801;SDS011;6972;51.518;6.918;2022-08-19T02:17:41;9.73;;;6.57;;
13801;SDS011;6972;51.518;6.918;2022-08-19T02:20:07;8.80;;;6.80;;
13801;SDS011;6972;51.518;6.918;2022-08-19T02:22:33;10.02;;;7.13;;
13801;SDS011;6972;51.518;6.918;2022-08-19T02:25:00;9.32;;;6.60;;
13801;SDS011;6972;51.518;6.918;2022-08-19T02:27:26;8.90;;;7.07;;
13801;SDS011;6972;51.518;6.918;2022-08-19T02:29:52;8.18;;;6.70;;
13801;SDS011;6972;51.518;6.918;2022-08-19T02:32:18;12.23;;;7.20;;
13801;SDS011;6972;51.518;6.918;2022-08-19T02:34:44;9.68;;;7.55;;
13801;SDS011;6972;51.518;6.918;2022-08-19T02:37:10;12.48;;;7.88;;
13801;SDS011;6972;51.518;6.918;2022-08-19T02:39:56;10.50;;;7.97;;
13801;SDS011;6972;51.518;6.918;2022-08-19T02:42:22;12.13;;;8.27;;
13801;SDS011;6972;51.518;6.918;2022-08-19T02:44:48;13.65;;;9.48;;
13801;SDS011;6972;51.518;6.918;2022-08-19T02:47:15;15.35;;;8.50;;
13801;SDS011;6972;51.518;6.918;2022-08-19T02:49:41;11.23;;;9.43;;
13801;SDS011;6972;51.518;6.918;2022-08-19T02:52:07;14.43;;;10.02;;
13801;SDS011;6972;51.518;6.918;2022-08-19T02:54:33;13.73;;;9.70;;
13801;SDS011;6972;51.518;6.918;2022-08-19T02:56:59;16.20;;;11.48;;
13801;SDS011;6972;51.518;6.918;2022-08-19T02:59:25;16.58;;;10.60;;
13801;SDS011;6972;51.518;6.918;2022-08-19T03:01:51;16.35;;;11.75;;
13801;SDS011;6972;51.518;6.918;2022-08-19T03:04:17;12.55;;;10.93;;
13801;SDS011;6972;51.518;6.918;2022-08-19T03:06:45;14.57;;;11.48;;
13801;SDS011;6972;51.518;6.918;2022-08-19T03:09:11;15.32;;;11.85;;
13801;SDS011;6972;51.518;6.918;2022-08-19T03:11:38;16.63;;;12.63;;
13801;SDS011;6972;51.518;6.918;2022-08-19T03:14:05;19.95;;;13.77;;
13801;SDS011;6972;51.518;6.918;2022-08-19T03:16:33;19.83;;;14.02;;
13801;SDS011;6972;51.518;6.918;2022-08-19T03:19:04;17.75;;;12.73;;
13801;SDS011;6972;51.518;6.918;2022-08-19T03:21:32;24.27;;;13.60;;
13801;SDS011;6972;51.518;6.918;2022-08-19T03:24:03;15.68;;;11.80;;
13801;SDS011;6972;51.518;6.918;2022-08-19T03:26:31;17.30;;;12.20;;
13801;SDS011;6972;51.518;6.918;2022-08-19T03:28:57;16.52;;;11.98;;
13801;SDS011;6972;51.518;6.918;2022-08-19T03:31:26;15.38;;;11.45;;
13801;SDS011;6972;51.518;6.918;2022-08-19T03:33:52;15.90;;;11.07;;
13801;SDS011;6972;51.518;6.918;2022-08-19T03:36:20;15.55;;;12.02;;
13801;SDS011;6972;51.518;6.918;2022-08-19T03:38:55;20.02;;;11.18;;
13801;SDS011;6972;51.518;6.918;2022-08-19T03:41:24;12.63;;;11.23;;
13801;SDS011;6972;51.518;6.918;2022-08-19T03:43:51;15.00;;;11.43;;
13801;SDS011;6972;51.518;6.918;2022-08-19T03:46:22;16.50;;;10.55;;
13801;SDS011;6972;51.518;6.918;2022-08-19T03:48:50;14.48;;;10.77;;
13801;SDS011;6972;51.518;6.918;2022-08-19T03:51:22;18.50;;;10.80;;
13801;SDS011;6972;51.518;6.918;2022-08-19T03:53:50;12.40;;;9.90;;
13801;SDS011;6972;51.518;6.918;2022-08-19T03:56:16;10.90;;;9.40;;
13801;SDS011;6972;51.518;6.918;2022-08-19T03:58:43;12.07;;;9.88;;
13801;SDS011;6972;51.518;6.918;2022-08-19T04:01:10;16.55;;;10.68;;
13801;SDS011;6972;51.518;6.918;2022-08-19T04:03:38;14.23;;;9.73;;
13801;SDS011;6972;51.518;6.918;2022-08-19T04:06:14;22.17;;;9.98;;
13801;SDS011;6972;51.518;6.918;2022-08-19T04:08:51;15.55;;;10.75;;
13801;SDS011;6972;51.518;6.918;2022-08-19T04:11:21;19.17;;;10.57;;
13801;SDS011;6972;51.518;6.918;2022-08-19T04:13:49;12.75;;;9.85;;
13801;SDS011;6972;51.518;6.918;2022-08-19T04:16:16;15.23;;;11.25;;
13801;SDS011;6972;51.518;6.918;2022-08-19T04:18:46;13.35;;;11.10;;
13801;SDS011;6972;51.518;6.918;2022-08-19T04:21:22;15.50;;;11.32;;
13801;SDS011;6972;51.518;6.918;2022-08-19T04:23:49;14.35;;;10.60;;
13801;SDS011;6972;51.518;6.918;2022-08-19T04:26:22;13.93;;;10.35;;
13801;SDS011;6972;51.518;6.918;2022-08-19T04:28:50;11.32;;;9.32;;
13801;SDS011;6972;51.518;6.918;2022-08-19T04:31:20;12.23;;;9.77;;
13801;SDS011;6972;51.518;6.918;2022-08-19T04:33:50;11.52;;;9.50;;
13801;SDS011;6972;51.518;6.918;2022-08-19T04:36:18;10.35;;;9.15;;
13801;SDS011;6972;51.518;6.918;2022-08-19T04:38:49;14.10;;;9.77;;
13801;SDS011;6972;51.518;6.918;2022-08-19T04:41:18;13.00;;;8.85;;
13801;SDS011;6972;51.518;6.918;2022-08-19T04:44:02;12.63;;;9.52;;
13801;SDS011;6972;51.518;6.918;2022-08-19T04:46:29;20.85;;;10.48;;
13801;SDS011;6972;51.518;6.918;2022-08-19T04:48:57;13.70;;;9.80;;
13801;SDS011;6972;51.518;6.918;2022-08-19T04:51:23;11.57;;;9.80;;
13801;SDS011;6972;51.518;6.918;2022-08-19T04:53:50;12.88;;;9.85;;
13801;SDS011;6972;51.518;6.918;2022-08-19T04:56:17;16.70;;;9.93;;
13801;SDS011;6972;51.518;6.918;2022-08-19T04:58:45;33.20;;;11.10;;
13801;SDS011;6972;51.518;6.918;2022-08-19T05:01:12;21.75;;;10.68;;
13801;SDS011;6972;51.518;6.918;2022-08-19T05:03:47;15.05;;;10.13;;
13801;SDS011;6972;51.518;6.918;2022-08-19T05:06:15;13.15;;;10.40;;
13801;SDS011;6972;51.518;6.918;2022-08-19T05:08:42;13.75;;;10.55;;
13801;SDS011;6972;51.518;6.918;2022-08-19T05:11:10;13.82;;;10.48;;
13801;SDS011;6972;51.518;6.918;2022-08-19T05:13:45;18.95;;;10.70;;
13801;SDS011;6972;51.518;6.918;2022-08-19T05:16:11;15.60;;;10.15;;
13801;SDS011;6972;51.518;6.918;2022-08-19T05:18:38;14.68;;;10.93;;
13801;SDS011;6972;51.518;6.918;2022-08-19T05:21:23;15.38;;;11.57;;
13801;SDS011;6972;51.518;6.918;2022-08-19T05:24:08;17.60;;;11.43;;
13801;SDS011;6972;51.518;6.918;2022-08-19T05:26:38;18.38;;;11.30;;
13801;SDS011;6972;51.518;6.918;2022-08-19T05:29:06;26.42;;;12.85;;
13801;SDS011;6972;51.518;6.918;2022-08-19T05:31:33;30.35;;;13.02;;
13801;SDS011;6972;51.518;6.918;2022-08-19T05:34:00;17.90;;;12.00;;
13801;SDS011;6972;51.518;6.918;2022-08-19T05:36:27;16.85;;;11.85;;
13801;SDS011;6972;51.518;6.918;2022-08-19T05:38:54;16.27;;;11.40;;
13801;SDS011;6972;51.518;6.918;2022-08-19T05:41:21;14.43;;;11.45;;
13801;SDS011;6972;51.518;6.918;2022-08-19T05:44:00;19.00;;;11.98;;
13801;SDS011;6972;51.518;6.918;2022-08-19T05:46:28;24.75;;;11.13;;
13801;SDS011;6972;51.518;6.918;2022-08-19T05:48:54;17.95;;;11.30;;
13801;SDS011;6972;51.518;6.918;2022-08-19T05:51:21;16.80;;;11.48;;
13801;SDS011;6972;51.518;6.918;2022-08-19T05:53:48;19.48;;;11.82;;
13801;SDS011;6972;51.518;6.918;2022-08-19T05:56:15;18.48;;;11.27;;
13801;SDS011;6972;51.518;6.918;2022-08-19T05:58:42;20.83;;;11.93;;
13801;SDS011;6972;51.518;6.918;2022-08-19T06:01:11;15.48;;;11.65;;
13801;SDS011;6972;51.518;6.918;2022-08-19T06:03:39;18.67;;;11.82;;
13801;SDS011;6972;51.518;6.918;2022-08-19T06:06:06;18.90;;;12.35;;
13801;SDS011;6972;51.518;6.918;2022-08-19T06:08:32;17.55;;;13.27;;
13801;SDS011;6972;51.518;6.918;2022-08-19T06:11:11;19.25;;;13.13;;
13801;SDS011;6972;51.518;6.918;2022-08-19T06:13:44;16.55;;;11.95;;
13801;SDS011;6972;51.518;6.918;2022-08-19T06:16:15;33.22;;;15.80;;
13801;SDS011;6972;51.518;6.918;2022-08-19T06:18:48;22.73;;;17.35;;
13801;SDS011;6972;51.518;6.918;2022-08-19T06:21:16;22.88;;;17.83;;
13801;SDS011;6972;51.518;6.918;2022-08-19T06:23:42;26.33;;;18.45;;
13801;SDS011;6972;51.518;6.918;2022-08-19T06:26:11;29.45;;;17.05;;
13801;SDS011;6972;51.518;6.918;2022-08-19T06:28:37;24.85;;;18.45;;
13801;SDS011;6972;51.518;6.918;2022-08-19T06:31:07;26.83;;;18.30;;
13801;SDS011;6972;51.518;6.918;2022-08-19T06:33:34;33.33;;;19.23;;
13801;SDS011;6972;51.518;6.918;2022-08-19T06:36:00;29.02;;;18.83;;
13801;SDS011;6972;51.518;6.918;2022-08-19T06:38:26;30.70;;;20.58;;
13801;SDS011;6972;51.518;6.918;2022-08-19T06:41:02;28.98;;;21.50;;
13801;SDS011;6972;51.518;6.918;2022-08-19T06:43:29;38.30;;;21.92;;
13801;SDS011;6972;51.518;6.918;2022-08-19T06:45:55;34.42;;;21.75;;
13801;SDS011;6972;51.518;6.918;2022-08-19T06:48:21;28.92;;;21.63;;
13801;SDS011;6972;51.518;6.918;2022-08-19T06:50:47;25.92;;;19.45;;
13801;SDS011;6972;51.518;6.918;2022-08-19T06:53:14;34.88;;;22.88;;
13801;SDS011;6972;51.518;6.918;2022-08-19T06:55:40;31.33;;;21.35;;
13801;SDS011;6972;51.518;6.918;2022-08-19T06:58:06;28.25;;;20.95;;
13801;SDS011;6972;51.518;6.918;2022-08-19T07:00:32;31.60;;;22.20;;
13801;SDS011;6972;51.518;6.918;2022-08-19T07:02:58;29.80;;;21.23;;
13801;SDS011;6972;51.518;6.918;2022-08-19T07:05:25;33.50;;;21.80;;
13801;SDS011;6972;51.518;6.918;2022-08-19T07:07:51;37.58;;;21.27;;
13801;SDS011;6972;51.518;6.918;2022-08-19T07:10:17;42.30;;;23.17;;
13801;SDS011;6972;51.518;6.918;2022-08-19T07:12:44;38.53;;;22.42;;
13801;SDS011;6972;51.518;6.918;2022-08-19T07:15:10;42.33;;;22.27;;
13801;SDS011;6972;51.518;6.918;2022-08-19T07:17:37;29.00;;;22.08;;
13801;SDS011;6972;51.518;6.918;2022-08-19T07:20:04;41.55;;;22.02;;
13801;SDS011;6972;51.518;6.918;2022-08-19T07:22:34;28.88;;;21.73;;
13801;SDS011;6972;51.518;6.918;2022-08-19T07:25:03;36.60;;;22.55;;
13801;SDS011;6972;51.518;6.918;2022-08-19T07:27:30;29.40;;;19.55;;
13801;SDS011;6972;51.518;6.918;2022-08-19T07:29:56;36.70;;;24.55;;
13801;SDS011;6972;51.518;6.918;2022-08-19T07:32:21;37.03;;;23.42;;
13801;SDS011;6972;51.518;6.918;2022-08-19T07:34:47;34.58;;;24.02;;
13801;SDS011;6972;51.518;6.918;2022-08-19T07:37:13;33.45;;;26.33;;
13801;SDS011;6972;51.518;6.918;2022-08-19T07:39:39;41.72;;;26.55;;
13801;SDS011;6972;51.518;6.918;2022-08-19T07:42:08;33.75;;;26.23;;
13801;SDS011;6972;51.518;6.918;2022-08-19T07:44:35;42.55;;;27.48;;
13801;SDS011;6972;51.518;6.918;2022-08-19T07:47:02;51.85;;;27.50;;
13801;SDS011;6972;51.518;6.918;2022-08-19T07:49:28;41.05;;;27.85;;
13801;SDS011;6972;51.518;6.918;2022-08-19T07:51:55;44.50;;;28.77;;
13801;SDS011;6972;51.518;6.918;2022-08-19T07:54:26;35.88;;;27.98;;
13801;SDS011;6972;51.518;6.918;2022-08-19T07:56:55;31.83;;;21.67;;
13801;SDS011;6972;51.518;6.918;2022-08-19T07:59:22;29.38;;;21.40;;
13801;SDS011;6972;51.518;6.918;2022-08-19T08:01:48;29.38;;;21.58;;
13801;SDS011;6972;51.518;6.918;2022-08-19T08:04:15;32.03;;;21.35;;
13801;SDS011;6972;51.518;6.918;2022-08-19T08:07:00;26.92;;;19.55;;
13801;SDS011;6972;51.518;6.918;2022-08-19T08:09:45;28.23;;;20.45;;
13801;SDS011;6972;51.518;6.918;2022-08-19T08:12:16;30.55;;;22.52;;
13801;SDS011;6972;51.518;6.918;2022-08-19T08:14:46;30.40;;;23.02;;
13801;SDS011;6972;51.518;6.918;2022-08-19T08:17:17;25.20;;;21.60;;
13801;SDS011;6972;51.518;6.918;2022-08-19T08:19:45;29.10;;;22.27;;
13801;SDS011;6972;51.518;6.918;2022-08-19T08:22:14;34.83;;;23.70;;
13801;SDS011;6972;51.518;6.918;2022-08-19T08:25:09;30.98;;;21.98;;
13801;SDS011;6972;51.518;6.918;2022-08-19T08:27:40;26.88;;;20.42;;
13801;SDS011;6972;51.518;6.918;2022-08-19T08:30:11;31.75;;;22.05;;
13801;SDS011;6972;51.518;6.918;2022-08-19T08:32:39;31.05;;;20.98;;
13801;SDS011;6972;51.518;6.918;2022-08-19T08:35:07;29.52;;;21.13;;
13801;SDS011;6972;51.518;6.918;2022-08-19T08:37:38;26.20;;;20.63;;
13801;SDS011;6972;51.518;6.918;2022-08-19T08:40:05;29.05;;;23.40;;
13801;SDS011;6972;51.518;6.918;2022-08-19T08:42:40;30.52;;;23.75;;
13801;SDS011;6972;51.518;6.918;2022-08-19T08:45:14;30.95;;;21.25;;
13801;SDS011;6972;51.518;6.918;2022-08-19T08:47:43;31.40;;;22.30;;
13801;SDS011;6972;51.518;6.918;2022-08-19T08:50:13;29.73;;;21.38;;
13801;SDS011;6972;51.518;6.918;2022-08-19T08:52:48;37.63;;;23.95;;
13801;SDS011;6972;51.518;6.918;2022-08-19T08:55:19;33.85;;;24.33;;
13801;SDS011;6972;51.518;6.918;2022-08-19T09:00:22;34.55;;;23.00;;
13801;SDS011;6972;51.518;6.918;2022-08-19T09:02:51;26.77;;;18.95;;
13801;SDS011;6972;51.518;6.918;2022-08-19T09:05:18;25.52;;;17.17;;
13801;SDS011;6972;51.518;6.918;2022-08-19T09:10:17;22.30;;;15.45;;
13801;SDS011;6972;51.518;6.918;2022-08-19T09:15:43;20.23;;;14.85;;
13801;SDS011;6972;51.518;6.918;2022-08-19T09:18:13;23.17;;;13.48;;
13801;SDS011;6972;51.518;6.918;2022-08-19T09:20:41;20.05;;;11.35;;
13801;SDS011;6972;51.518;6.918;2022-08-19T09:23:07;13.82;;;10.60;;
13801;SDS011;6972;51.518;6.918;2022-08-19T09:25:33;16.50;;;10.68;;
13801;SDS011;6972;51.518;6.918;2022-08-19T09:27:59;12.63;;;9.70;;
13801;SDS011;6972;51.518;6.918;2022-08-19T09:30:28;14.07;;;8.13;;
13801;SDS011;6972;51.518;6.918;2022-08-19T09:32:59;13.60;;;8.50;;
13801;SDS011;6972;51.518;6.918;2022-08-19T09:35:27;13.70;;;9.45;;
13801;SDS011;6972;51.518;6.918;2022-08-19T09:37:54;15.02;;;10.48;;
13801;SDS011;6972;51.518;6.918;2022-08-19T09:40:20;15.10;;;11.45;;
13801;SDS011;6972;51.518;6.918;2022-08-19T09:42:46;14.25;;;10.77;;
13801;SDS011;6972;51.518;6.918;2022-08-19T09:45:13;15.20;;;9.70;;
13801;SDS011;6972;51.518;6.918;2022-08-19T09:47:40;16.15;;;10.00;;
13801;SDS011;6972;51.518;6.918;2022-08-19T09:50:07;15.98;;;9.00;;
13801;SDS011;6972;51.518;6.918;2022-08-19T09:52:35;15.05;;;11.57;;
13801;SDS011;6972;51.518;6.918;2022-08-19T09:55:04;19.02;;;14.55;;
13801;SDS011;6972;51.518;6.918;2022-08-19T09:57:31;20.88;;;15.23;;
13801;SDS011;6972;51.518;6.918;2022-08-19T09:59:57;19.35;;;12.93;;
13801;SDS011;6972;51.518;6.918;2022-08-19T10:02:23;16.08;;;12.57;;
13801;SDS011;6972;51.518;6.918;2022-08-19T10:04:49;22.05;;;16.90;;
13801;SDS011;6972;51.518;6.918;2022-08-19T10:07:35;37.08;;;22.80;;
13801;SDS011;6972;51.518;6.918;2022-08-19T10:10:03;35.90;;;20.73;;
13801;SDS011;6972;51.518;6.918;2022-08-19T10:12:31;38.42;;;22.58;;
13801;SDS011;6972;51.518;6.918;2022-08-19T10:14:58;28.20;;;21.80;;
13801;SDS011;6972;51.518;6.918;2022-08-19T10:17:24;38.17;;;21.60;;
13801;SDS011;6972;51.518;6.918;2022-08-19T10:19:50;28.05;;;20.33;;
13801;SDS011;6972;51.518;6.918;2022-08-19T10:22:17;27.27;;;19.38;;
13801;SDS011;6972;51.518;6.918;2022-08-19T10:24:44;30.80;;;20.27;;
13801;SDS011;6972;51.518;6.918;2022-08-19T10:27:12;33.42;;;22.25;;
13801;SDS011;6972;51.518;6.918;2022-08-19T10:29:39;34.55;;;21.05;;
13801;SDS011;6972;51.518;6.918;2022-08-19T10:32:06;39.17;;;21.45;;
13801;SDS011;6972;51.518;6.918;2022-08-19T10:34:34;25.95;;;19.00;;
13801;SDS011;6972;51.518;6.918;2022-08-19T10:37:03;40.08;;;21.20;;
13801;SDS011;6972;51.518;6.918;2022-08-19T10:39:31;24.77;;;19.95;;
13801;SDS011;6972;51.518;6.918;2022-08-19T10:41:59;30.40;;;22.15;;
13801;SDS011;6972;51.518;6.918;2022-08-19T10:44:25;34.97;;;19.25;;
13801;SDS011;6972;51.518;6.918;2022-08-19T10:46:54;27.35;;;18.33;;
13801;SDS011;6972;51.518;6.918;2022-08-19T10:49:20;30.40;;;21.02;;
13801;SDS011;6972;51.518;6.918;2022-08-19T10:51:49;27.30;;;21.15;;
13801;SDS011;6972;51.518;6.918;2022-08-19T10:54:33;30.08;;;20.80;;
13801;SDS011;6972;51.518;6.918;2022-08-19T10:57:17;27.27;;;19.60;;
13801;SDS011;6972;51.518;6.918;2022-08-19T10:59:43;29.75;;;22.17;;
13801;SDS011;6972;51.518;6.918;2022-08-19T11:02:10;28.33;;;20.98;;
13801;SDS011;6972;51.518;6.918;2022-08-19T11:04:37;29.65;;;19.40;;
13801;SDS011;6972;51.518;6.918;2022-08-19T11:07:05;27.17;;;18.85;;
13801;SDS011;6972;51.518;6.918;2022-08-19T11:09:31;28.05;;;17.60;;
13801;SDS011;6972;51.518;6.918;2022-08-19T11:11:57;36.80;;;18.67;;
13801;SDS011;6972;51.518;6.918;2022-08-19T11:14:23;31.17;;;19.25;;
13801;SDS011;6972;51.518;6.918;2022-08-19T11:16:50;29.33;;;21.00;;
13801;SDS011;6972;51.518;6.918;2022-08-19T11:19:18;31.08;;;18.42;;
13801;SDS011;6972;51.518;6.918;2022-08-19T11:21:46;26.63;;;19.95;;
13801;SDS011;6972;51.518;6.918;2022-08-19T11:24:14;36.08;;;20.25;;
13801;SDS011;6972;51.518;6.918;2022-08-19T11:26:46;29.48;;;18.23;;
13801;SDS011;6972;51.518;6.918;2022-08-19T11:29:16;23.95;;;16.77;;
13801;SDS011;6972;51.518;6.918;2022-08-19T11:31:45;22.55;;;17.02;;
13801;SDS011;6972;51.518;6.918;2022-08-19T11:34:12;22.58;;;15.02;;
13801;SDS011;6972;51.518;6.918;2022-08-19T11:36:41;32.33;;;14.40;;
13801;SDS011;6972;51.518;6.918;2022-08-19T11:39:10;22.98;;;15.32;;
13801;SDS011;6972;51.518;6.918;2022-08-19T11:41:38;22.50;;;14.80;;
13801;SDS011;6972;51.518;6.918;2022-08-19T11:44:04;19.90;;;14.05;;
13801;SDS011;6972;51.518;6.918;2022-08-19T11:46:32;20.85;;;12.90;;
13801;SDS011;6972;51.518;6.918;2022-08-19T11:48:59;17.48;;;12.45;;
13801;SDS011;6972;51.518;6.918;2022-08-19T11:51:26;20.13;;;11.93;;
13801;SDS011;6972;51.518;6.918;2022-08-19T11:53:53;15.07;;;10.20;;
13801;SDS011;6972;51.518;6.918;2022-08-19T11:56:20;13.25;;;9.00;;
13801;SDS011;6972;51.518;6.918;2022-08-19T11:58:46;12.60;;;7.95;;
13801;SDS011;6972;51.518;6.918;2022-08-19T12:01:14;15.15;;;10.93;;
13801;SDS011;6972;51.518;6.918;2022-08-19T12:03:42;17.58;;;11.63;;
13801;SDS011;6972;51.518;6.918;2022-08-19T12:06:10;15.80;;;10.68;;
13801;SDS011;6972;51.518;6.918;2022-08-19T12:08:38;11.35;;;8.70;;
13801;SDS011;6972;51.518;6.918;2022-08-19T12:11:04;15.20;;;9.90;;
13801;SDS011;6972;51.518;6.918;2022-08-19T12:13:33;18.00;;;10.32;;
13801;SDS011;6972;51.518;6.918;2022-08-19T12:15:59;11.77;;;9.10;;
13801;SDS011;6972;51.518;6.918;2022-08-19T12:18:26;13.43;;;8.40;;
13801;SDS011;6972;51.518;6.918;2022-08-19T12:20:53;11.63;;;8.05;;
13801;SDS011;6972;51.518;6.918;2022-08-19T12:23:22;13.25;;;8.23;;
13801;SDS011;6972;51.518;6.918;2022-08-19T12:25:48;11.63;;;8.02;;
13801;SDS011;6972;51.518;6.918;2022-08-19T12:28:21;10.25;;;7.10;;
13801;SDS011;6972;51.518;6.918;2022-08-19T12:30:48;12.05;;;7.35;;
13801;SDS011;6972;51.518;6.918;2022-08-19T12:33:18;15.35;;;7.25;;
13801;SDS011;6972;51.518;6.918;2022-08-19T12:35:48;11.63;;;8.63;;
13801;SDS011;6972;51.518;6.918;2022-08-19T12:38:15;14.55;;;7.20;;
13801;SDS011;6972;51.518;6.918;2022-08-19T12:40:41;43.10;;;8.45;;
13801;SDS011;6972;51.518;6.918;2022-08-19T12:43:11;14.80;;;6.60;;
13801;SDS011;6972;51.518;6.918;2022-08-19T12:45:37;9.77;;;5.82;;
13801;SDS011;6972;51.518;6.918;2022-08-19T12:48:03;12.43;;;5.50;;
13801;SDS011;6972;51.518;6.918;2022-08-19T12:50:29;13.10;;;5.90;;
13801;SDS011;6972;51.518;6.918;2022-08-19T12:52:56;9.77;;;6.20;;
13801;SDS011;6972;51.518;6.918;2022-08-19T12:55:22;11.20;;;5.90;;
13801;SDS011;6972;51.518;6.918;2022-08-19T12:57:48;10.48;;;5.38;;
13801;SDS011;6972;51.518;6.918;2022-08-19T13:00:16;12.38;;;6.75;;
13801;SDS011;6972;51.518;6.918;2022-08-19T13:02:49;14.35;;;5.68;;
13801;SDS011;6972;51.518;6.918;2022-08-19T13:05:20;6.90;;;5.35;;
13801;SDS011;6972;51.518;6.918;2022-08-19T13:07:51;9.65;;;5.00;;
13801;SDS011;6972;51.518;6.918;2022-08-19T13:10:21;7.40;;;4.50;;
13801;SDS011;6972;51.518;6.918;2022-08-19T13:12:49;4.72;;;3.83;;
13801;SDS011;6972;51.518;6.918;2022-08-19T13:15:16;7.35;;;3.33;;
13801;SDS011;6972;51.518;6.918;2022-08-19T13:17:45;6.03;;;3.88;;
13801;SDS011;6972;51.518;6.918;2022-08-19T13:20:13;5.68;;;3.90;;
13801;SDS011;6972;51.518;6.918;2022-08-19T13:22:39;5.65;;;4.15;;
13801;SDS011;6972;51.518;6.918;2022-08-19T13:25:05;6.90;;;3.53;;
13801;SDS011;6972;51.518;6.918;2022-08-19T13:27:32;11.32;;;3.92;;
13801;SDS011;6972;51.518;6.918;2022-08-19T13:29:58;7.32;;;3.90;;
13801;SDS011;6972;51.518;6.918;2022-08-19T13:32:43;6.15;;;3.83;;
13801;SDS011;6972;51.518;6.918;2022-08-19T13:35:27;10.80;;;4.45;;
13801;SDS011;6972;51.518;6.918;2022-08-19T13:37:53;16.60;;;5.38;;
13801;SDS011;6972;51.518;6.918;2022-08-19T13:40:20;9.68;;;5.05;;
13801;SDS011;6972;51.518;6.918;2022-08-19T13:42:50;5.65;;;4.50;;
13801;SDS011;6972;51.518;6.918;2022-08-19T13:45:21;6.68;;;3.83;;
13801;SDS011;6972;51.518;6.918;2022-08-19T13:47:49;4.97;;;3.70;;
13801;SDS011;6972;51.518;6.918;2022-08-19T13:50:17;7.57;;;4.10;;
13801;SDS011;6972;51.518;6.918;2022-08-19T13:52:45;7.68;;;4.10;;
13801;SDS011;6972;51.518;6.918;2022-08-19T13:55:14;6.22;;;4.18;;
13801;SDS011;6972;51.518;6.918;2022-08-19T13:57:40;9.85;;;4.50;;
13801;SDS011;6972;51.518;6.918;2022-08-19T14:00:10;8.15;;;4.53;;
13801;SDS011;6972;51.518;6.918;2022-08-19T14:02:39;6.95;;;4.43;;
13801;SDS011;6972;51.518;6.918;2022-08-19T14:05:06;6.18;;;3.45;;
13801;SDS011;6972;51.518;6.918;2022-08-19T14:07:34;7.43;;;3.67;;
13801;SDS011;6972;51.518;6.918;2022-08-19T14:10:01;6.63;;;4.07;;
13801;SDS011;6972;51.518;6.918;2022-08-19T14:12:27;8.05;;;4.50;;
13801;SDS011;6972;51.518;6.918;2022-08-19T14:14:53;10.90;;;4.82;;
13801;SDS011;6972;51.518;6.918;2022-08-19T14:17:19;11.23;;;5.10;;
13801;SDS011;6972;51.518;6.918;2022-08-19T14:19:46;8.27;;;4.78;;
13801;SDS011;6972;51.518;6.918;2022-08-19T14:22:12;6.05;;;5.22;;
13801;SDS011;6972;51.518;6.918;2022-08-19T14:24:38;7.18;;;5.00;;
13801;SDS011;6972;51.518;6.918;2022-08-19T14:27:04;6.05;;;4.90;;
13801;SDS011;6972;51.518;6.918;2022-08-19T14:29:31;8.50;;;5.32;;
13801;SDS011;6972;51.518;6.918;2022-08-19T14:31:57;9.00;;;5.22;;
13801;SDS011;6972;51.518;6.918;2022-08-19T14:34:24;9.10;;;5.05;;
13801;SDS011;6972;51.518;6.918;2022-08-19T14:36:50;9.18;;;5.00;;
13801;SDS011;6972;51.518;6.918;2022-08-19T14:39:17;8.43;;;5.32;;
13801;SDS011;6972;51.518;6.918;2022-08-19T14:41:43;9.20;;;6.78;;
13801;SDS011;6972;51.518;6.918;2022-08-19T14:44:10;10.95;;;6.82;;
13801;SDS011;6972;51.518;6.918;2022-08-19T14:46:37;12.10;;;6.60;;
13801;SDS011;6972;51.518;6.918;2022-08-19T14:49:03;15.35;;;6.45;;
13801;SDS011;6972;51.518;6.918;2022-08-19T14:51:30;10.15;;;6.53;;
13801;SDS011;6972;51.518;6.918;2022-08-19T14:53:56;10.40;;;6.00;;
13801;SDS011;6972;51.518;6.918;2022-08-19T14:56:24;10.15;;;5.93;;
13801;SDS011;6972;51.518;6.918;2022-08-19T14:58:53;11.18;;;6.07;;